Time;durP1;ratioP1;P1;durP2;ratioP2;P2;SDS_P1;SDS_P2;PMS_P1;PMS_P2;Temp;Humidity;BMP_temperature;BMP_pressure;BME280_temperature;BME280_humidity;BME280_pressure;Samples;Min_cycle;Max_cycle;Signal;HPM_P1;HPM_P2
2023/05/29 00:00:29;;;;;;;10.73;6.80;;;14.30;99.90;;;;;;5102349;27;20615;-32
2023/05/29 00:02:55;;;;;;;16.40;8.20;;;14.30;99.90;;;;;;5117200;27;20190;-31
2023/05/29 00:05:22;;;;;;;15.63;7.93;;;14.20;99.90;;;;;;5078701;27;20184;-31
2023/05/29 00:07:50;;;;;;;13.87;8.20;;;14.20;99.90;;;;;;5111839;27;20262;-32
2023/05/29 00:10:16;;;;;;;17.60;8.30;;;14.20;99.90;;;;;;5111951;27;20176;-32
2023/05/29 00:12:42;;;;;;;10.93;7.30;;;14.20;99.90;;;;;;5093126;27;20217;-32
2023/05/29 00:15:10;;;;;;;13.13;7.90;;;14.10;99.90;;;;;;5098390;28;20227;-32
2023/05/29 00:17:36;;;;;;;14.40;8.17;;;14.10;99.90;;;;;;5089719;27;20206;-31
2023/05/29 00:20:07;;;;;;;12.80;7.60;;;14.00;99.90;;;;;;5120215;27;20190;-32
2023/05/29 00:22:33;;;;;;;10.73;6.80;;;13.90;99.90;;;;;;5096726;27;20247;-32
2023/05/29 00:24:59;;;;;;;13.50;8.13;;;13.90;99.90;;;;;;5104917;27;20285;-32
2023/05/29 00:27:25;;;;;;;12.67;7.50;;;13.90;99.90;;;;;;5095530;27;20274;-31
2023/05/29 00:29:51;;;;;;;10.03;6.60;;;13.90;99.90;;;;;;5118906;27;20262;-31
2023/05/29 00:32:17;;;;;;;12.37;7.67;;;14.00;99.90;;;;;;5117221;27;20184;-31
2023/05/29 00:34:44;;;;;;;10.87;6.83;;;14.00;99.90;;;;;;5083544;27;20207;-32
2023/05/29 00:37:10;;;;;;;12.83;7.03;;;14.10;99.90;;;;;;5099310;27;20212;-32
2023/05/29 00:39:36;;;;;;;11.43;7.03;;;14.10;99.90;;;;;;5121114;27;20179;-31
2023/05/29 00:42:02;;;;;;;16.20;7.67;;;14.00;99.90;;;;;;5096358;27;20263;-31
2023/05/29 00:44:28;;;;;;;10.77;7.63;;;13.90;99.90;;;;;;5093208;27;20417;-31
2023/05/29 00:46:54;;;;;;;12.60;7.40;;;13.90;99.90;;;;;;5083188;27;20266;-32
2023/05/29 00:49:22;;;;;;;16.03;6.90;;;13.90;99.90;;;;;;5101041;28;20282;-32
2023/05/29 00:51:51;;;;;;;9.87;6.80;;;13.80;99.90;;;;;;5100803;28;20183;-31
2023/05/29 00:54:23;;;;;;;10.10;6.57;;;13.80;99.90;;;;;;5114732;27;20198;-32
2023/05/29 00:56:49;;;;;;;10.00;6.10;;;13.60;99.90;;;;;;5119497;27;20278;-31
2023/05/29 00:59:15;;;;;;;10.33;6.30;;;13.50;99.90;;;;;;5107841;27;20261;-32
2023/05/29 01:01:43;;;;;;;8.53;6.13;;;13.50;99.90;;;;;;5116410;27;20174;-31
2023/05/29 01:04:12;;;;;;;9.17;6.70;;;13.50;99.90;;;;;;5093785;28;20196;-32
2023/05/29 01:06:39;;;;;;;10.30;6.17;;;13.40;99.90;;;;;;5107578;27;20232;-31
2023/05/29 01:09:06;;;;;;;9.60;7.23;;;13.40;99.90;;;;;;5127262;27;20234;-31
2023/05/29 01:12:07;;;;;;;12.27;7.20;;;13.50;99.90;;;;;;5102201;27;20202;-32
2023/05/29 01:15:08;;;;;;;10.83;6.80;;;13.50;99.90;;;;;;5094371;27;20217;-32
2023/05/29 01:18:12;;;;;;;11.03;6.50;;;13.40;99.90;;;;;;5106271;27;20209;-31
2023/05/29 01:20:59;;;;;;;10.23;6.47;;;13.40;99.90;;;;;;5108750;27;20180;-31
2023/05/29 01:23:58;;;;;;;12.80;6.87;;;13.40;99.90;;;;;;5094190;27;20288;-31
2023/05/29 01:26:48;;;;;;;11.80;6.40;;;13.40;99.90;;;;;;5090929;28;20190;-31
2023/05/29 01:29:17;;;;;;;10.60;6.67;;;13.40;99.90;;;;;;5083687;28;20212;-31
2023/05/29 01:31:45;;;;;;;9.27;6.30;;;13.40;99.90;;;;;;5094353;27;20175;-31
2023/05/29 01:34:11;;;;;;;8.07;5.90;;;13.30;99.90;;;;;;5116735;27;20237;-32
2023/05/29 01:36:38;;;;;;;9.57;5.90;;;13.30;99.90;;;;;;5114468;27;20602;-32
2023/05/29 01:39:05;;;;;;;8.67;6.27;;;13.30;99.90;;;;;;5119159;27;20295;-32
2023/05/29 01:41:34;;;;;;;9.77;6.60;;;13.30;99.90;;;;;;5094703;27;20174;-32
2023/05/29 01:44:04;;;;;;;10.93;6.67;;;13.30;99.90;;;;;;5099228;28;20225;-32
2023/05/29 01:46:30;;;;;;;12.13;6.47;;;13.30;99.90;;;;;;5130171;27;20278;-31
2023/05/29 01:48:57;;;;;;;9.57;5.80;;;13.20;99.90;;;;;;5092356;28;20265;-32
2023/05/29 01:51:22;;;;;;;8.97;6.53;;;13.20;99.90;;;;;;5124297;27;20326;-32
2023/05/29 01:53:48;;;;;;;12.73;6.40;;;13.20;99.90;;;;;;5107870;27;20202;-32
2023/05/29 01:56:15;;;;;;;10.47;6.20;;;13.20;99.90;;;;;;5115938;27;20214;-31
2023/05/29 01:58:43;;;;;;;9.50;6.37;;;13.20;99.90;;;;;;5085358;27;20182;-32
2023/05/29 02:01:10;;;;;;;8.27;6.07;;;13.10;99.90;;;;;;5082702;28;20182;-31
2023/05/29 02:03:36;;;;;;;9.17;6.33;;;13.00;99.90;;;;;;5082617;27;20224;-32
2023/05/29 02:06:02;;;;;;;9.63;6.43;;;13.00;99.90;;;;;;5101836;28;20172;-31
2023/05/29 02:08:28;;;;;;;11.50;6.77;;;13.00;99.90;;;;;;5100404;27;20181;-32
2023/05/29 02:10:54;;;;;;;9.93;6.60;;;13.00;99.90;;;;;;5103838;28;20253;-31
2023/05/29 02:13:21;;;;;;;8.67;6.57;;;13.00;99.90;;;;;;5110387;28;20314;-31
2023/05/29 02:15:48;;;;;;;9.20;7.30;;;13.00;99.90;;;;;;5103340;27;20205;-31
2023/05/29 02:18:15;;;;;;;9.90;6.50;;;13.00;99.90;;;;;;5095469;28;20643;-32
2023/05/29 02:20:41;;;;;;;10.17;6.93;;;13.00;99.90;;;;;;5109282;27;20181;-32
2023/05/29 02:23:10;;;;;;;10.73;6.93;;;13.00;99.90;;;;;;5106899;28;20171;-32
2023/05/29 02:25:36;;;;;;;10.20;6.43;;;13.00;99.90;;;;;;5119116;27;20170;-31
2023/05/29 02:28:03;;;;;;;10.50;6.53;;;12.90;99.90;;;;;;5102659;27;20183;-32
2023/05/29 02:30:31;;;;;;;8.20;6.00;;;12.90;99.90;;;;;;5112444;27;20181;-32
2023/05/29 02:32:57;;;;;;;10.93;6.20;;;12.80;99.90;;;;;;5111299;28;20187;-31
2023/05/29 02:35:23;;;;;;;9.57;6.13;;;12.80;99.90;;;;;;5126233;27;20181;-31
2023/05/29 02:37:50;;;;;;;11.90;6.87;;;12.80;99.90;;;;;;5096197;27;20203;-31
2023/05/29 02:40:17;;;;;;;8.33;6.30;;;12.70;99.90;;;;;;5098315;27;20175;-32
2023/05/29 02:42:43;;;;;;;11.37;6.40;;;12.60;99.90;;;;;;5113978;27;20193;-31
2023/05/29 02:45:09;;;;;;;8.93;6.30;;;12.50;99.90;;;;;;5091574;27;20201;-32
2023/05/29 02:47:36;;;;;;;9.83;6.70;;;12.40;99.90;;;;;;5099336;27;20215;-31
2023/05/29 02:50:03;;;;;;;9.77;6.87;;;12.40;99.90;;;;;;5139207;27;20181;-31
2023/05/29 02:52:34;;;;;;;9.63;6.13;;;12.30;99.90;;;;;;5098677;28;20197;-31
2023/05/29 02:55:02;;;;;;;8.93;6.60;;;12.30;99.90;;;;;;5105199;27;20206;-31
2023/05/29 02:57:28;;;;;;;9.40;6.70;;;12.30;99.90;;;;;;5107576;28;20295;-31
2023/05/29 02:59:54;;;;;;;12.27;6.80;;;12.30;99.90;;;;;;5096328;27;20266;-31
2023/05/29 03:02:22;;;;;;;8.77;6.27;;;12.30;99.90;;;;;;5094583;27;20184;-31
2023/05/29 03:04:52;;;;;;;10.57;6.27;;;12.20;99.90;;;;;;5084255;27;20204;-31
2023/05/29 03:07:19;;;;;;;11.20;6.33;;;12.20;99.90;;;;;;5097814;27;20176;-31
2023/05/29 03:09:45;;;;;;;10.20;6.90;;;12.10;99.90;;;;;;5108701;27;20181;-31
2023/05/29 03:12:11;;;;;;;7.53;6.57;;;12.00;99.90;;;;;;5085999;28;20180;-31
2023/05/29 03:14:37;;;;;;;9.10;5.90;;;12.00;99.90;;;;;;5098196;27;20296;-31
2023/05/29 03:17:11;;;;;;;11.73;6.57;;;11.90;99.90;;;;;;5082883;28;20215;-31
2023/05/29 03:19:38;;;;;;;9.13;6.13;;;11.80;99.90;;;;;;5135491;27;20176;-31
2023/05/29 03:22:04;;;;;;;11.10;6.37;;;11.60;99.90;;;;;;5118310;27;20274;-32
2023/05/29 03:24:35;;;;;;;8.40;6.13;;;11.60;99.90;;;;;;5108624;27;20218;-33
2023/05/29 03:27:03;;;;;;;8.87;6.57;;;11.60;99.90;;;;;;5083184;28;20187;-31
2023/05/29 03:29:34;;;;;;;8.20;5.70;;;11.60;99.90;;;;;;5133126;27;20194;-32
2023/05/29 03:32:06;;;;;;;10.83;6.47;;;11.60;99.90;;;;;;5098561;28;20168;-31
2023/05/29 03:34:34;;;;;;;8.00;6.10;;;11.70;99.90;;;;;;5103070;27;20229;-32
2023/05/29 03:37:03;;;;;;;9.13;5.80;;;11.70;99.90;;;;;;5096532;28;20206;-31
2023/05/29 03:39:30;;;;;;;7.03;5.60;;;11.70;99.90;;;;;;5107612;27;20246;-32
2023/05/29 03:41:58;;;;;;;9.20;6.07;;;11.60;99.90;;;;;;5083054;27;20176;-31
2023/05/29 03:44:24;;;;;;;11.00;6.20;;;11.60;99.90;;;;;;5085124;27;20192;-31
2023/05/29 03:46:51;;;;;;;10.57;6.47;;;11.60;99.90;;;;;;5102710;27;20190;-32
2023/05/29 03:49:17;;;;;;;6.67;5.73;;;11.40;99.90;;;;;;5098789;27;20175;-32
2023/05/29 03:51:43;;;;;;;7.47;5.57;;;11.40;99.90;;;;;;5107840;27;20184;-32
2023/05/29 03:54:10;;;;;;;7.73;5.50;;;11.40;99.90;;;;;;5094225;27;20208;-33
2023/05/29 03:56:36;;;;;;;8.73;6.33;;;11.40;99.90;;;;;;5095932;27;20211;-31
2023/05/29 03:59:03;;;;;;;10.03;6.77;;;11.40;99.90;;;;;;5091534;27;20171;-31
2023/05/29 04:01:31;;;;;;;9.13;5.80;;;11.40;99.90;;;;;;5103273;27;20237;-32
2023/05/29 04:03:57;;;;;;;8.63;6.20;;;11.40;99.90;;;;;;5101940;27;20250;-31
2023/05/29 04:06:23;;;;;;;12.00;6.80;;;11.40;99.90;;;;;;5091928;27;20182;-32
2023/05/29 04:08:49;;;;;;;9.37;6.63;;;11.40;99.90;;;;;;5112183;27;20207;-32
2023/05/29 04:11:16;;;;;;;10.07;6.10;;;11.40;99.90;;;;;;5105483;27;20264;-32
2023/05/29 04:13:44;;;;;;;10.60;6.30;;;11.50;99.90;;;;;;5102698;27;20298;-31
2023/05/29 04:16:10;;;;;;;9.57;6.00;;;11.50;99.90;;;;;;5095162;27;20230;-32
2023/05/29 04:18:38;;;;;;;8.47;5.60;;;11.50;99.90;;;;;;5084121;27;20180;-31
2023/05/29 04:21:04;;;;;;;8.20;5.70;;;11.60;99.90;;;;;;5101383;27;20178;-31
2023/05/29 04:23:32;;;;;;;9.40;5.60;;;11.60;99.90;;;;;;5115650;27;20218;-31
2023/05/29 04:26:00;;;;;;;7.77;5.80;;;11.60;99.90;;;;;;5124481;27;20186;-31
2023/05/29 04:28:28;;;;;;;9.10;6.13;;;11.60;99.90;;;;;;5088678;27;20192;-31
2023/05/29 04:30:59;;;;;;;9.93;5.10;;;11.70;99.90;;;;;;5100637;27;20259;-31
2023/05/29 04:33:25;;;;;;;9.43;6.17;;;11.70;99.90;;;;;;5115960;27;20191;-32
2023/05/29 04:35:53;;;;;;;12.57;6.33;;;11.70;99.90;;;;;;5103684;27;20171;-31
2023/05/29 04:38:24;;;;;;;7.33;5.63;;;11.70;99.90;;;;;;5083353;27;20203;-32
2023/05/29 04:40:57;;;;;;;9.33;6.63;;;11.70;99.90;;;;;;5093548;27;20220;-31
2023/05/29 04:43:26;;;;;;;9.13;6.17;;;11.70;99.90;;;;;;5120520;27;20260;-32
2023/05/29 04:46:12;;;;;;;8.63;6.73;;;11.70;99.90;;;;;;5124328;27;20178;-31
2023/05/29 04:48:40;;;;;;;9.37;6.90;;;11.70;99.90;;;;;;5108462;27;20176;-33
2023/05/29 04:51:10;;;;;;;8.23;6.70;;;11.70;99.90;;;;;;5089497;27;20211;-31
2023/05/29 04:53:41;;;;;;;7.97;6.23;;;11.70;99.90;;;;;;5089716;27;20217;-31
2023/05/29 04:56:09;;;;;;;8.73;6.37;;;11.70;99.90;;;;;;5103366;27;20258;-31
2023/05/29 04:58:36;;;;;;;9.03;6.60;;;11.80;99.90;;;;;;5117521;27;20175;-31
2023/05/29 05:01:07;;;;;;;10.90;6.90;;;11.90;99.90;;;;;;5104430;27;20186;-32
2023/05/29 05:03:34;;;;;;;6.87;6.00;;;11.90;99.90;;;;;;5104864;27;20231;-32
2023/05/29 05:06:02;;;;;;;10.80;6.60;;;11.90;99.90;;;;;;5096972;27;20185;-31
2023/05/29 05:08:29;;;;;;;9.57;6.27;;;12.00;99.90;;;;;;5107419;28;20195;-33
2023/05/29 05:10:57;;;;;;;12.73;6.67;;;12.10;99.90;;;;;;5085293;27;20260;-31
2023/05/29 05:13:23;;;;;;;12.00;6.90;;;12.20;99.90;;;;;;5094241;28;20199;-31
2023/05/29 05:15:49;;;;;;;9.53;7.03;;;12.30;99.90;;;;;;5082754;27;20173;-31
2023/05/29 05:18:15;;;;;;;10.83;6.70;;;12.40;99.90;;;;;;5108110;28;20203;-31
2023/05/29 05:20:45;;;;;;;10.77;6.73;;;12.50;99.90;;;;;;5095240;27;20205;-32
2023/05/29 05:23:11;;;;;;;9.27;6.10;;;12.60;99.90;;;;;;5117388;27;20195;-31
2023/05/29 05:25:38;;;;;;;8.37;6.20;;;12.70;99.90;;;;;;5112499;28;20185;-31
2023/05/29 05:28:04;;;;;;;9.33;6.37;;;12.80;99.90;;;;;;5104933;27;20283;-32
2023/05/29 05:30:32;;;;;;;8.97;6.37;;;12.90;99.90;;;;;;5103452;28;20181;-31
2023/05/29 05:32:58;;;;;;;11.23;6.47;;;13.00;99.90;;;;;;5095534;27;20193;-32
2023/05/29 05:35:24;;;;;;;8.57;6.73;;;13.00;99.90;;;;;;5110951;28;20204;-32
2023/05/29 05:37:51;;;;;;;9.40;6.67;;;13.00;99.90;;;;;;5083471;27;20210;-31
2023/05/29 05:40:17;;;;;;;8.00;5.97;;;13.10;99.90;;;;;;5105297;28;20686;-32
2023/05/29 05:42:55;;;;;;;10.93;6.83;;;13.20;99.90;;;;;;5093807;27;20181;-31
2023/05/29 05:45:32;;;;;;;8.33;6.63;;;13.20;99.90;;;;;;5132857;27;20427;-32
2023/05/29 05:47:59;;;;;;;8.57;6.30;;;13.40;99.90;;;;;;5098182;27;20531;-32
2023/05/29 05:50:25;;;;;;;11.40;6.53;;;13.50;99.90;;;;;;5106582;27;20179;-32
2023/05/29 05:52:51;;;;;;;8.73;6.30;;;13.60;99.90;;;;;;5105033;27;20192;-32
2023/05/29 05:55:17;;;;;;;10.40;6.90;;;13.80;99.90;;;;;;5109169;28;20187;-32
2023/05/29 05:57:43;;;;;;;10.03;6.60;;;13.80;99.90;;;;;;5111866;27;20222;-31
2023/05/29 06:00:13;;;;;;;8.57;6.60;;;13.90;99.90;;;;;;5088741;27;20189;-32
2023/05/29 06:02:45;;;;;;;11.07;6.70;;;14.00;99.90;;;;;;5101976;27;20187;-32
2023/05/29 06:05:19;;;;;;;7.83;5.73;;;14.10;99.90;;;;;;5078063;28;20180;-32
2023/05/29 06:07:45;;;;;;;7.40;6.10;;;14.30;99.90;;;;;;5094445;27;20181;-32
2023/05/29 06:10:11;;;;;;;8.27;6.20;;;14.50;99.90;;;;;;5095335;27;20179;-31
2023/05/29 06:12:37;;;;;;;9.83;6.40;;;14.70;99.90;;;;;;5106133;27;20179;-31
2023/05/29 06:15:14;;;;;;;9.27;6.60;;;14.90;99.90;;;;;;5096552;28;20207;-32
2023/05/29 06:17:43;;;;;;;8.73;6.13;;;15.10;99.90;;;;;;5123265;27;20198;-32
2023/05/29 06:20:13;;;;;;;8.80;6.50;;;15.20;99.90;;;;;;5101347;27;20179;-33
2023/05/29 06:22:41;;;;;;;8.97;6.00;;;15.40;99.90;;;;;;5093251;27;20172;-32
2023/05/29 06:25:09;;;;;;;8.67;6.50;;;15.50;99.90;;;;;;5103649;27;20200;-31
2023/05/29 06:27:37;;;;;;;7.80;5.77;;;15.70;99.90;;;;;;5101792;27;20182;-32
2023/05/29 06:30:03;;;;;;;8.03;6.20;;;15.90;99.90;;;;;;5103231;27;20288;-32
2023/05/29 06:32:30;;;;;;;8.50;6.03;;;16.10;99.90;;;;;;5112519;27;20179;-32
2023/05/29 06:34:58;;;;;;;10.43;6.40;;;16.30;99.90;;;;;;5099638;27;20200;-32
2023/05/29 06:37:25;;;;;;;8.37;6.10;;;16.50;99.90;;;;;;5101874;27;20210;-32
2023/05/29 06:39:51;;;;;;;7.93;6.00;;;16.70;99.90;;;;;;5121507;27;20219;-32
2023/05/29 06:42:17;;;;;;;10.43;7.07;;;16.90;99.90;;;;;;5101049;27;20239;-33
2023/05/29 06:44:43;;;;;;;7.87;6.20;;;17.10;99.90;;;;;;5091475;27;20220;-32
2023/05/29 06:47:09;;;;;;;8.93;6.00;;;17.10;99.90;;;;;;5094229;27;20207;-32
2023/05/29 06:49:35;;;;;;;9.73;6.60;;;17.20;99.90;;;;;;5103123;27;20208;-32
2023/05/29 06:52:02;;;;;;;6.97;5.73;;;17.40;99.90;;;;;;5082576;27;20239;-33
2023/05/29 06:54:56;;;;;;;8.40;6.60;;;17.50;99.90;;;;;;5091402;27;20210;-33
2023/05/29 06:57:22;;;;;;;10.63;6.30;;;17.60;99.90;;;;;;5105132;27;20196;-33
2023/05/29 06:59:48;;;;;;;9.90;6.17;;;17.80;99.90;;;;;;5095168;27;20203;-32
2023/05/29 07:02:15;;;;;;;8.93;6.60;;;17.70;99.90;;;;;;5103293;27;20170;-32
2023/05/29 07:04:42;;;;;;;8.20;6.15;;;17.70;99.90;;;;;;5102841;27;20192;-32
2023/05/29 07:07:10;;;;;;;6.60;5.57;;;17.80;99.90;;;;;;5119710;27;20176;-33
2023/05/29 07:09:39;;;;;;;9.63;5.95;;;18.00;99.90;;;;;;5099296;27;20226;-33
2023/05/29 07:12:12;;;;;;;9.57;5.75;;;18.30;99.90;;;;;;5099334;27;20206;-32
2023/05/29 07:14:38;;;;;;;10.10;5.85;;;18.40;99.90;;;;;;5097917;28;20219;-33
2023/05/29 07:17:05;;;;;;;7.00;5.50;;;18.60;99.90;;;;;;5095251;27;20213;-32
2023/05/29 07:19:34;;;;;;;6.68;5.35;;;18.70;99.90;;;;;;5100968;27;20174;-33
2023/05/29 07:22:01;;;;;;;7.80;5.25;;;18.70;99.90;;;;;;5105481;27;20187;-33
2023/05/29 07:24:27;;;;;;;7.85;5.35;;;18.90;99.90;;;;;;5098925;27;20187;-33
2023/05/29 07:26:54;;;;;;;8.13;5.80;;;19.10;99.90;;;;;;5088265;27;20183;-33
2023/05/29 07:29:23;;;;;;;9.25;5.97;;;19.20;99.90;;;;;;5099046;27;20181;-33
2023/05/29 07:31:50;;;;;;;6.60;5.40;;;19.40;99.90;;;;;;5099106;27;20191;-32
2023/05/29 07:34:19;;;;;;;6.13;4.90;;;19.50;99.90;;;;;;5102794;27;20227;-33
2023/05/29 07:37:06;;;;;;;6.78;5.10;;;19.70;99.90;;;;;;5086215;27;20195;-32
2023/05/29 07:39:35;;;;;;;8.05;5.55;;;19.90;99.90;;;;;;5092332;28;20207;-33
2023/05/29 07:42:08;;;;;;;7.28;5.32;;;20.00;99.90;;;;;;5094037;27;20172;-32
2023/05/29 07:44:38;;;;;;;6.32;5.13;;;20.20;99.90;;;;;;5100021;27;20204;-34
2023/05/29 07:47:05;;;;;;;8.10;5.40;;;20.40;99.90;;;;;;5087396;27;20242;-33
2023/05/29 07:49:37;;;;;;;9.10;5.80;;;20.60;99.90;;;;;;5095326;27;20178;-33
2023/05/29 07:52:04;;;;;;;7.18;5.28;;;20.70;99.90;;;;;;5100761;27;20179;-33
2023/05/29 07:54:32;;;;;;;8.23;5.38;;;20.80;99.90;;;;;;5086403;27;20196;-34
2023/05/29 07:57:00;;;;;;;9.48;5.70;;;20.90;99.90;;;;;;5109056;27;20206;-34
2023/05/29 07:59:26;;;;;;;8.13;4.95;;;21.00;99.90;;;;;;5081484;27;20183;-32
2023/05/29 08:01:53;;;;;;;10.43;5.90;;;21.10;99.90;;;;;;5095268;27;20771;-32
2023/05/29 08:04:39;;;;;;;9.05;5.53;;;21.10;99.90;;;;;;5102919;27;20203;-33
2023/05/29 08:07:05;;;;;;;6.53;5.22;;;21.10;99.90;;;;;;5095257;27;20179;-33
2023/05/29 08:09:32;;;;;;;8.93;5.72;;;21.30;99.90;;;;;;5103899;27;20244;-33
2023/05/29 08:12:00;;;;;;;10.38;6.05;;;21.30;99.90;;;;;;5086340;27;20175;-33
2023/05/29 08:14:26;;;;;;;8.38;5.55;;;21.30;99.90;;;;;;5085887;28;20697;-33
2023/05/29 08:16:53;;;;;;;8.32;5.78;;;21.30;99.90;;;;;;5090605;27;20229;-33
2023/05/29 08:19:18;;;;;;;7.35;5.00;;;21.40;99.90;;;;;;5105409;27;20202;-34
2023/05/29 08:21:44;;;;;;;7.35;5.20;;;21.40;99.90;;;;;;5079401;27;20183;-33
2023/05/29 08:24:10;;;;;;;10.13;5.50;;;21.60;99.90;;;;;;5103315;27;20260;-36
2023/05/29 08:26:36;;;;;;;9.38;5.53;;;21.70;99.90;;;;;;5099037;27;20175;-34
2023/05/29 08:29:02;;;;;;;7.78;5.75;;;21.90;99.90;;;;;;5110741;27;20205;-33
2023/05/29 08:31:29;;;;;;;8.75;5.70;;;22.00;99.90;;;;;;5127917;27;20175;-33
2023/05/29 08:33:55;;;;;;;7.47;5.38;;;22.00;99.90;;;;;;5119137;27;20199;-33
2023/05/29 08:36:21;;;;;;;8.55;6.00;;;22.30;99.90;;;;;;5120741;27;20193;-34
2023/05/29 08:38:48;;;;;;;7.95;5.68;;;22.50;99.90;;;;;;5092024;28;20176;-33
2023/05/29 08:41:30;;;;;;;7.72;5.28;;;22.60;99.90;;;;;;5091281;27;20206;-33
2023/05/29 08:43:59;;;;;;;7.68;5.35;;;22.80;99.90;;;;;;5083778;27;20192;-34
2023/05/29 08:46:26;;;;;;;6.25;4.80;;;23.00;99.90;;;;;;5112828;27;20187;-33
2023/05/29 08:48:56;;;;;;;6.80;4.88;;;23.20;99.90;;;;;;5118216;27;20273;-33
2023/05/29 08:51:29;;;;;;;6.97;4.97;;;23.40;99.90;;;;;;5093181;27;20183;-33
2023/05/29 08:53:56;;;;;;;5.68;4.95;;;23.60;99.90;;;;;;5124476;27;20191;-33
2023/05/29 08:56:22;;;;;;;9.73;4.90;;;23.90;99.90;;;;;;5097687;27;20248;-33
2023/05/29 08:58:50;;;;;;;5.75;5.03;;;24.00;99.90;;;;;;5123018;27;20199;-33
2023/05/29 09:01:17;;;;;;;7.82;5.20;;;24.10;99.90;;;;;;5129124;27;20176;-33
2023/05/29 09:03:43;;;;;;;7.05;5.68;;;24.20;99.90;;;;;;5100984;28;20224;-34
2023/05/29 09:06:09;;;;;;;7.95;5.45;;;24.40;99.90;;;;;;5099682;27;20182;-33
2023/05/29 09:08:38;;;;;;;6.97;5.25;;;24.30;99.90;;;;;;5095929;28;20176;-33
2023/05/29 09:11:05;;;;;;;6.45;5.38;;;24.50;99.90;;;;;;5111534;27;20179;-33
2023/05/29 09:13:31;;;;;;;7.18;5.07;;;24.70;99.90;;;;;;5099853;28;20338;-33
2023/05/29 09:15:58;;;;;;;7.60;5.20;;;24.80;99.90;;;;;;5085431;28;20176;-33
2023/05/29 09:18:30;;;;;;;7.40;5.00;;;24.90;99.90;;;;;;5097796;28;20203;-33
2023/05/29 09:20:57;;;;;;;8.00;5.35;;;25.10;99.90;;;;;;5102035;27;20179;-33
2023/05/29 09:23:23;;;;;;;6.53;5.13;;;25.20;99.90;;;;;;5104121;27;20282;-33
2023/05/29 09:25:53;;;;;;;10.40;5.43;;;25.30;99.90;;;;;;5099327;28;20266;-34
2023/05/29 09:28:21;;;;;;;6.07;4.68;;;25.30;99.90;;;;;;5097002;27;20175;-34
2023/05/29 09:30:47;;;;;;;6.10;5.15;;;25.40;99.90;;;;;;5094211;27;20181;-33
2023/05/29 09:33:15;;;;;;;6.30;5.25;;;25.70;99.90;;;;;;5106680;27;20210;-33
2023/05/29 09:35:46;;;;;;;6.68;4.43;;;25.90;99.90;;;;;;5097481;27;20314;-33
2023/05/29 09:38:17;;;;;;;6.28;4.93;;;25.80;99.90;;;;;;5119694;27;20234;-32
2023/05/29 09:40:46;;;;;;;7.30;5.05;;;25.90;99.90;;;;;;5124835;27;20178;-33
2023/05/29 09:43:16;;;;;;;6.30;4.72;;;26.00;99.90;;;;;;5096218;27;20185;-33
2023/05/29 09:45:47;;;;;;;7.60;5.38;;;26.00;99.90;;;;;;5102913;27;20638;-33
2023/05/29 09:48:23;;;;;;;7.60;5.35;;;25.90;99.90;;;;;;5109139;27;20216;-33
2023/05/29 09:50:50;;;;;;;7.70;5.25;;;26.10;99.90;;;;;;5091865;27;20187;-35
2023/05/29 09:53:24;;;;;;;6.32;4.50;;;26.10;99.90;;;;;;5092988;27;20198;-33
2023/05/29 09:55:52;;;;;;;7.05;4.95;;;26.00;99.90;;;;;;5106067;27;20175;-33
2023/05/29 09:58:19;;;;;;;10.48;5.60;;;25.80;99.90;;;;;;5120204;27;20198;-34
2023/05/29 10:00:47;;;;;;;9.48;5.25;;;25.90;99.90;;;;;;5091905;27;20312;-33
2023/05/29 10:03:13;;;;;;;6.22;4.80;;;26.00;99.90;;;;;;5102830;27;20176;-35
2023/05/29 10:05:40;;;;;;;8.70;4.65;;;26.10;99.90;;;;;;5097060;27;20216;-33
2023/05/29 10:08:13;;;;;;;6.63;5.53;;;26.30;99.90;;;;;;5103839;27;20187;-34
2023/05/29 10:10:46;;;;;;;7.25;5.05;;;26.40;99.90;;;;;;5102378;27;20215;-34
2023/05/29 10:13:13;;;;;;;6.10;4.82;;;26.50;99.90;;;;;;5122160;27;20179;-33
2023/05/29 10:15:45;;;;;;;5.40;4.82;;;26.30;99.90;;;;;;5120230;27;20211;-35
2023/05/29 10:18:35;;;;;;;5.32;4.70;;;26.20;99.90;;;;;;5104037;27;20207;-34
2023/05/29 10:21:02;;;;;;;7.82;4.90;;;26.20;99.90;;;;;;5093283;27;20187;-33
2023/05/29 10:23:29;;;;;;;6.07;4.55;;;26.20;99.90;;;;;;5107011;27;20196;-33
2023/05/29 10:26:15;;;;;;;7.07;4.90;;;26.40;99.90;;;;;;5090196;27;20178;-34
2023/05/29 10:28:49;;;;;;;8.40;4.78;;;26.60;99.90;;;;;;5102264;28;20200;-33
2023/05/29 10:31:27;;;;;;;6.63;4.78;;;26.50;99.90;;;;;;5126705;27;20175;-33
2023/05/29 10:34:23;;;;;;;7.00;4.60;;;26.30;99.90;;;;;;5100714;28;20196;-33
2023/05/29 10:37:02;;;;;;;5.90;4.93;;;26.40;99.90;;;;;;5122195;27;20806;-34
2023/05/29 10:39:28;;;;;;;6.45;4.85;;;26.30;99.90;;;;;;5103983;27;20222;-33
2023/05/29 10:41:58;;;;;;;5.95;4.20;;;26.40;99.90;;;;;;5092694;27;20642;-34
2023/05/29 10:44:32;;;;;;;6.32;4.88;;;26.70;99.90;;;;;;5131444;27;20198;-33
2023/05/29 10:47:04;;;;;;;5.47;4.38;;;26.80;99.90;;;;;;5098990;28;20179;-33
2023/05/29 10:49:31;;;;;;;5.90;4.90;;;27.00;99.90;;;;;;5087947;27;20187;-34
2023/05/29 10:51:59;;;;;;;6.53;5.10;;;27.00;99.90;;;;;;5097948;27;20205;-34
2023/05/29 10:54:26;;;;;;;5.75;4.90;;;26.90;99.90;;;;;;5095901;27;20228;-34
2023/05/29 10:56:56;;;;;;;8.52;5.10;;;27.00;99.90;;;;;;5094730;28;20215;-34
2023/05/29 10:59:25;;;;;;;5.72;4.47;;;27.00;99.90;;;;;;5100436;27;20179;-34
2023/05/29 11:01:53;;;;;;;5.72;4.30;;;27.10;99.90;;;;;;5100886;27;20182;-34
2023/05/29 11:04:22;;;;;;;7.22;4.50;;;27.00;99.90;;;;;;5113583;27;20206;-34
2023/05/29 11:06:48;;;;;;;5.13;4.28;;;27.30;99.90;;;;;;5090509;27;20307;-34
2023/05/29 11:09:37;;;;;;;5.28;4.03;;;27.50;99.90;;;;;;5097468;27;20176;-34
2023/05/29 11:12:12;;;;;;;4.88;4.32;;;27.80;99.90;;;;;;5102329;27;20186;-33
2023/05/29 11:14:52;;;;;;;4.55;3.97;;;27.90;99.90;;;;;;5118982;27;20203;-34
2023/05/29 11:17:37;;;;;;;7.00;4.30;;;27.90;99.90;;;;;;5089162;27;20210;-34
2023/05/29 11:20:06;;;;;;;5.80;4.30;;;28.10;99.90;;;;;;5082324;28;20180;-34
2023/05/29 11:22:54;;;;;;;6.30;4.20;;;28.00;99.50;;;;;;5109119;27;20175;-33
2023/05/29 11:25:21;;;;;;;7.20;3.80;;;27.80;98.70;;;;;;5095671;27;20266;-34
2023/05/29 11:27:47;;;;;;;5.78;4.32;;;28.00;99.90;;;;;;5094585;28;20188;-34
2023/05/29 11:30:13;;;;;;;5.93;4.22;;;27.90;98.20;;;;;;5102258;27;20273;-34
2023/05/29 11:32:41;;;;;;;4.72;3.80;;;28.00;98.80;;;;;;5102434;28;20210;-34
2023/05/29 11:35:12;;;;;;;6.32;4.28;;;28.20;99.20;;;;;;5102757;28;20204;-35
2023/05/29 11:37:39;;;;;;;5.53;3.75;;;28.40;98.50;;;;;;5089142;27;20202;-33
2023/05/29 11:40:12;;;;;;;5.07;4.28;;;28.40;97.60;;;;;;5131768;27;20258;-35
2023/05/29 11:42:45;;;;;;;5.50;4.18;;;28.40;97.00;;;;;;5102286;28;20180;-34
2023/05/29 11:45:21;;;;;;;4.18;3.75;;;28.50;95.60;;;;;;5090637;28;20195;-34
2023/05/29 11:48:05;;;;;;;9.60;4.95;;;28.40;96.30;;;;;;5100911;28;20175;-34
2023/05/29 11:50:32;;;;;;;5.13;4.18;;;27.80;95.50;;;;;;5093657;27;20187;-34
2023/05/29 11:52:59;;;;;;;4.22;3.70;;;27.80;95.20;;;;;;5100884;28;20176;-34
2023/05/29 11:55:26;;;;;;;4.88;3.88;;;27.70;96.40;;;;;;5093619;27;20186;-34
2023/05/29 11:57:58;;;;;;;6.35;4.60;;;27.90;96.40;;;;;;5088536;28;20211;-33
2023/05/29 12:00:25;;;;;;;5.80;3.92;;;28.10;95.90;;;;;;5120362;27;20190;-34
2023/05/29 12:02:51;;;;;;;4.60;3.72;;;28.00;96.80;;;;;;5126094;27;20175;-33
2023/05/29 12:05:21;;;;;;;6.65;4.38;;;27.90;94.60;;;;;;5117855;27;20256;-34
2023/05/29 12:07:57;;;;;;;4.32;3.65;;;27.80;95.30;;;;;;5090679;27;20244;-33
2023/05/29 12:10:24;;;;;;;7.18;4.43;;;27.80;96.30;;;;;;5094926;27;20187;-34
2023/05/29 12:12:55;;;;;;;5.00;3.88;;;28.00;95.10;;;;;;5103176;27;20184;-34
2023/05/29 12:15:22;;;;;;;5.93;3.80;;;28.20;95.90;;;;;;5095108;27;20191;-33
2023/05/29 12:17:52;;;;;;;5.20;4.07;;;28.50;94.90;;;;;;5103229;27;20653;-34
2023/05/29 12:20:20;;;;;;;6.00;4.20;;;28.70;94.40;;;;;;5130267;27;20184;-34
2023/05/29 12:22:46;;;;;;;5.78;4.15;;;28.80;93.70;;;;;;5105241;27;20171;-34
2023/05/29 12:25:21;;;;;;;4.40;4.00;;;28.90;93.20;;;;;;5113721;27;20264;-34
2023/05/29 12:27:48;;;;;;;5.30;4.43;;;29.00;93.10;;;;;;5089531;27;20183;-33
2023/05/29 12:30:24;;;;;;;6.18;4.22;;;29.10;92.30;;;;;;5097156;28;20232;-33
2023/05/29 12:32:51;;;;;;;9.27;4.15;;;29.30;92.10;;;;;;5084991;28;20175;-33
2023/05/29 12:35:20;;;;;;;6.15;4.38;;;28.90;92.90;;;;;;5095364;27;20257;-34
2023/05/29 12:37:59;;;;;;;5.55;4.05;;;29.10;93.20;;;;;;5088716;27;20210;-33
2023/05/29 12:40:30;;;;;;;5.78;3.63;;;29.20;93.90;;;;;;5095793;27;20182;-34
2023/05/29 12:43:00;;;;;;;5.95;4.03;;;29.30;93.80;;;;;;5095403;28;20267;-37
2023/05/29 12:45:28;;;;;;;5.15;4.00;;;29.50;94.20;;;;;;5107252;27;20278;-37
2023/05/29 12:47:56;;;;;;;4.40;3.92;;;29.60;93.40;;;;;;5082455;28;20202;-38
2023/05/29 12:50:33;;;;;;;6.60;4.00;;;29.80;93.90;;;;;;5113160;27;20179;-35
2023/05/29 12:53:05;;;;;;;5.63;3.85;;;29.70;93.60;;;;;;5097102;27;20174;-36